createdAt,value
2023-05-08T00:00:40.540Z,6.07
2023-05-08T00:01:40.615Z,2.21
2023-05-08T00:02:40.769Z,7.04
2023-05-08T00:03:40.945Z,2.85
2023-05-08T00:04:46.881Z,6.40
2023-05-08T00:05:40.924Z,6.07
2023-05-08T00:06:41.008Z,5.75
2023-05-08T00:07:41.091Z,6.07
2023-05-08T00:08:41.169Z,4.46
2023-05-08T00:09:41.247Z,13.49
2023-05-08T00:10:41.334Z,6.40
2023-05-08T00:11:41.411Z,8.01
2023-05-08T00:12:41.553Z,14.78
2023-05-08T00:13:41.576Z,3.82
2023-05-08T00:14:41.737Z,0.92
2023-05-08T00:15:41.747Z,6.40
2023-05-08T00:16:41.883Z,6.72
2023-05-08T00:17:41.941Z,14.13
2023-05-08T00:18:41.971Z,1.56
2023-05-08T00:19:42.051Z,6.07
2023-05-08T00:20:42.129Z,7.04
2023-05-08T00:21:42.222Z,13.16
2023-05-08T00:22:42.308Z,6.07
2023-05-08T00:23:42.396Z,6.40
2023-05-08T00:24:42.476Z,10.59
2023-05-08T00:25:42.577Z,5.43
2023-05-08T00:26:42.630Z,6.07
2023-05-08T00:27:42.704Z,6.07
2023-05-08T00:28:42.812Z,7.36
2023-05-08T00:29:42.865Z,6.40
2023-05-08T00:30:42.938Z,6.07
2023-05-08T00:31:43.071Z,3.50
2023-05-08T00:32:43.128Z,8.65
2023-05-08T00:33:43.179Z,12.20
2023-05-08T00:34:43.236Z,6.07
2023-05-08T00:35:49.858Z,5.43
2023-05-08T00:36:43.421Z,11.55
2023-05-08T00:37:43.460Z,6.07
2023-05-08T00:38:43.630Z,6.72
2023-05-08T00:39:43.626Z,6.40
2023-05-08T00:40:43.712Z,6.07
2023-05-08T00:41:43.790Z,11.87
2023-05-08T00:42:43.892Z,6.07
2023-05-08T00:43:43.963Z,2.21
2023-05-08T00:44:44.059Z,13.49
2023-05-08T00:45:44.103Z,13.16
2023-05-08T00:46:44.236Z,5.75
2023-05-08T00:47:44.320Z,14.13
2023-05-08T00:48:44.402Z,14.13
2023-05-08T00:49:44.507Z,7.36
2023-05-08T00:50:44.582Z,5.11
2023-05-08T00:51:44.660Z,7.04
2023-05-08T00:52:44.733Z,5.43
2023-05-08T00:53:44.807Z,5.75
2023-05-08T00:54:44.900Z,11.87
2023-05-08T00:55:44.962Z,1.88
2023-05-08T00:56:45.042Z,5.75
2023-05-08T00:57:45.123Z,6.72
2023-05-08T00:58:45.236Z,4.79
2023-05-08T00:59:45.290Z,12.52
2023-05-08T01:00:45.375Z,5.43
2023-05-08T01:01:45.483Z,10.26
2023-05-08T01:02:45.608Z,-1.98
2023-05-08T01:03:45.682Z,12.20
2023-05-08T01:04:45.729Z,6.72
2023-05-08T01:05:45.784Z,5.11
2023-05-08T01:09:56.968Z,-0.05
2023-05-08T01:10:56.265Z,-1.66
2023-05-08T01:11:56.999Z,5.43
2023-05-08T01:12:56.342Z,-0.37
2023-05-08T01:13:56.402Z,3.82
2023-05-08T01:14:56.460Z,5.75
2023-05-08T01:15:56.593Z,8.65
2023-05-08T01:16:56.633Z,6.72
2023-05-08T01:17:56.727Z,5.11
2023-05-08T01:18:56.801Z,5.43
2023-05-08T01:19:56.877Z,5.75
2023-05-08T01:20:56.955Z,6.07
2023-05-08T01:21:57.031Z,5.11
2023-05-08T01:22:57.119Z,5.11
2023-05-08T01:23:57.199Z,5.43
2023-05-08T01:24:57.275Z,5.75
2023-05-08T01:25:57.370Z,5.43
2023-05-08T01:26:58.236Z,5.43
2023-05-08T01:27:57.522Z,10.91
2023-05-08T01:28:57.566Z,5.11
2023-05-08T01:29:57.648Z,5.43
2023-05-08T01:30:57.737Z,8.97
2023-05-08T01:31:57.814Z,5.43
2023-05-08T01:32:58.028Z,4.79
2023-05-08T01:33:57.992Z,4.79
2023-05-08T01:34:58.032Z,5.43
2023-05-08T01:35:58.138Z,4.79
2023-05-08T01:36:58.197Z,10.59
2023-05-08T01:37:58.284Z,5.43
2023-05-08T01:38:58.375Z,4.79
2023-05-08T01:40:04.442Z,5.11
2023-05-08T01:40:58.553Z,11.87
2023-05-08T01:41:58.640Z,4.46
2023-05-08T01:42:58.728Z,2.53
2023-05-08T01:43:58.801Z,6.07
2023-05-08T01:44:58.887Z,10.26
2023-05-08T01:45:58.961Z,5.43
2023-05-08T01:46:59.210Z,9.94
2023-05-08T01:47:59.180Z,-1.02
2023-05-08T01:48:59.224Z,5.43
2023-05-08T01:49:59.278Z,5.43
2023-05-08T01:50:59.357Z,4.46
2023-05-08T01:51:59.437Z,4.46
2023-05-08T01:52:59.525Z,4.46
2023-05-08T01:53:59.608Z,4.79
2023-05-08T01:54:59.686Z,5.11
2023-05-08T01:55:59.823Z,9.30
2023-05-08T01:56:59.849Z,0.92
2023-05-08T01:57:59.934Z,6.07
2023-05-08T01:59:00.011Z,4.79
2023-05-08T02:00:00.170Z,1.88
2023-05-08T02:01:00.224Z,4.79
2023-05-08T02:02:00.259Z,5.43
2023-05-08T02:03:00.368Z,3.82
2023-05-08T02:04:00.466Z,4.14
2023-05-08T02:05:00.435Z,4.46
2023-05-08T02:06:00.530Z,4.46
2023-05-08T02:07:00.614Z,4.79
2023-05-08T02:08:00.697Z,5.11
2023-05-08T02:09:00.780Z,5.11
2023-05-08T02:10:00.852Z,11.55
2023-05-08T02:11:06.929Z,8.01
2023-05-08T02:12:01.028Z,10.26
2023-05-08T02:13:01.141Z,13.16
2023-05-08T02:14:01.207Z,4.14
2023-05-08T02:15:01.300Z,4.79
2023-05-08T02:16:01.385Z,11.87
2023-05-08T02:17:01.529Z,4.14
2023-05-08T02:18:01.616Z,4.46
2023-05-08T02:19:02.165Z,5.43
2023-05-08T02:20:01.711Z,8.65
2023-05-08T02:21:01.790Z,4.46
2023-05-08T02:22:01.871Z,9.94
2023-05-08T02:23:01.980Z,4.14
2023-05-08T02:24:02.044Z,4.79
2023-05-08T02:25:02.119Z,10.26
2023-05-08T02:26:02.212Z,11.55
2023-05-08T02:27:02.303Z,1.56
2023-05-08T02:28:02.384Z,9.62
2023-05-08T02:29:02.527Z,5.11
2023-05-08T02:30:02.555Z,13.49
2023-05-08T02:31:02.654Z,4.79
2023-05-08T02:32:02.750Z,10.91
2023-05-08T02:33:02.864Z,13.16
2023-05-08T02:34:02.887Z,4.46
2023-05-08T02:35:03.891Z,-1.98
2023-05-08T02:36:03.058Z,4.46
2023-05-08T02:37:03.134Z,9.30
2023-05-08T02:38:03.220Z,4.46
2023-05-08T02:39:03.297Z,7.36
2023-05-08T02:40:03.385Z,3.82
2023-05-08T02:41:03.465Z,3.50
2023-05-08T02:42:10.071Z,-2.30
2023-05-08T02:43:03.645Z,3.82
2023-05-08T02:44:03.730Z,4.14
2023-05-08T02:45:03.816Z,4.14
2023-05-08T02:46:03.958Z,4.46
2023-05-08T02:47:05.689Z,-2.95
2023-05-08T02:48:04.148Z,3.82
2023-05-08T02:49:04.151Z,4.14
2023-05-08T02:50:04.230Z,4.46
2023-05-08T02:51:04.308Z,3.50
2023-05-08T02:52:04.389Z,4.14
2023-05-08T02:53:04.487Z,-1.34
2023-05-08T02:54:04.545Z,4.79
2023-05-08T02:55:04.689Z,7.04
2023-05-08T02:56:04.725Z,13.16
2023-05-08T02:57:04.820Z,-0.05
2023-05-08T02:58:04.904Z,-3.27
2023-05-08T02:59:05.032Z,3.50
2023-05-08T03:00:05.085Z,3.82
2023-05-08T03:01:05.198Z,-5.21
2023-05-08T03:02:05.234Z,-0.05
2023-05-08T03:03:05.422Z,-3.59
2023-05-08T03:04:05.452Z,3.82
2023-05-08T03:05:05.496Z,4.14
2023-05-08T03:06:05.577Z,3.17
2023-05-08T03:07:05.652Z,1.88
2023-05-08T03:08:05.734Z,-1.66
2023-05-08T03:09:05.839Z,7.04
2023-05-08T03:10:05.936Z,-3.27
2023-05-08T03:11:05.976Z,-8.11
2023-05-08T03:12:06.066Z,3.82
2023-05-08T03:13:12.654Z,5.43
2023-05-08T03:14:06.244Z,1.56
2023-05-08T03:15:06.308Z,-2.30
2023-05-08T03:16:06.505Z,3.50
2023-05-08T03:17:06.458Z,7.36
2023-05-08T03:18:06.541Z,4.79
2023-05-08T03:19:06.602Z,1.56
2023-05-08T03:20:06.707Z,-3.92
2023-05-08T03:21:06.744Z,3.50
2023-05-08T03:22:06.830Z,3.50
2023-05-08T03:23:06.913Z,3.82
2023-05-08T03:24:06.986Z,1.24
2023-05-08T03:25:07.086Z,3.82
2023-05-08T03:26:07.156Z,4.46
2023-05-08T03:27:07.236Z,6.07
2023-05-08T03:28:07.310Z,11.23
2023-05-08T03:29:07.408Z,4.79
2023-05-08T03:30:07.524Z,3.17
2023-05-08T03:31:07.685Z,3.50
2023-05-08T03:32:07.667Z,4.46
2023-05-08T03:33:07.828Z,4.46
2023-05-08T03:34:07.798Z,-1.34
2023-05-08T03:35:07.910Z,9.62
2023-05-08T03:36:07.994Z,3.50
2023-05-08T03:37:08.068Z,4.14
2023-05-08T03:38:08.213Z,4.46
2023-05-08T03:39:08.237Z,3.82
2023-05-08T03:40:08.335Z,3.50
2023-05-08T03:41:08.415Z,2.53
2023-05-08T03:42:08.513Z,-2.63
2023-05-08T03:43:08.570Z,4.14
2023-05-08T03:44:14.642Z,3.17
2023-05-08T03:45:08.740Z,4.79
2023-05-08T03:46:08.877Z,7.04
2023-05-08T03:47:08.992Z,0.92
2023-05-08T03:48:09.106Z,4.46
2023-05-08T03:49:09.065Z,3.82
2023-05-08T03:50:09.148Z,6.07
2023-05-08T03:51:09.245Z,3.50
2023-05-08T03:52:09.286Z,-3.27
2023-05-08T03:53:09.388Z,4.46
2023-05-08T03:54:09.451Z,4.14
2023-05-08T03:55:09.533Z,-0.05
2023-05-08T03:56:09.635Z,3.82
2023-05-08T03:57:09.731Z,4.14
2023-05-08T03:58:09.799Z,12.52
2023-05-08T03:59:09.885Z,4.46
2023-05-08T04:00:10.186Z,5.11
2023-05-08T04:01:10.039Z,-3.27
2023-05-08T04:02:10.259Z,4.79
2023-05-08T04:03:10.241Z,4.46
2023-05-08T04:04:10.309Z,4.46
2023-05-08T04:05:10.375Z,2.53
2023-05-08T04:06:10.474Z,5.43
2023-05-08T04:07:10.579Z,5.11
2023-05-08T04:08:10.638Z,5.75
2023-05-08T04:09:10.767Z,5.43
2023-05-08T04:10:11.096Z,5.43
2023-05-08T04:11:10.853Z,6.07
2023-05-08T04:12:10.948Z,14.13
2023-05-08T04:13:11.048Z,6.07
2023-05-08T04:14:11.119Z,6.07
2023-05-08T04:15:17.180Z,7.04
2023-05-08T04:16:11.299Z,8.33
2023-05-08T04:17:11.461Z,6.72
2023-05-08T04:18:11.501Z,12.52
2023-05-08T04:19:11.547Z,13.16
2023-05-08T04:20:11.594Z,5.11
2023-05-08T04:21:11.680Z,6.72
2023-05-08T04:22:11.780Z,6.72
2023-05-08T04:23:11.820Z,7.36
2023-05-08T04:24:11.898Z,7.69
2023-05-08T04:25:12.167Z,6.72
2023-05-08T04:26:12.080Z,9.94
2023-05-08T04:27:12.171Z,6.72
2023-05-08T04:28:12.268Z,7.69
2023-05-08T04:29:12.342Z,8.01
2023-05-08T04:30:12.422Z,8.01
2023-05-08T04:31:12.513Z,4.79
2023-05-08T04:32:12.670Z,8.01
2023-05-08T04:33:12.686Z,2.53
2023-05-08T04:34:12.774Z,7.69
2023-05-08T04:35:13.067Z,8.97
2023-05-08T04:36:12.919Z,8.33
2023-05-08T04:37:13.007Z,9.30
2023-05-08T04:38:13.095Z,9.30
2023-05-08T04:39:13.133Z,9.30
2023-05-08T04:40:19.701Z,8.97
2023-05-08T04:41:13.359Z,11.55
2023-05-08T04:42:13.369Z,18.64
2023-05-08T04:43:13.483Z,6.40
2023-05-08T04:44:13.526Z,9.30
2023-05-08T04:45:13.810Z,17.35
2023-05-08T04:46:13.695Z,9.94
2023-05-08T04:47:13.749Z,10.59
2023-05-08T04:48:13.837Z,9.94
2023-05-08T04:49:13.932Z,13.16
2023-05-08T04:50:13.984Z,11.23
2023-05-08T04:51:14.070Z,7.36
2023-05-08T04:52:14.172Z,3.17
2023-05-08T04:53:14.244Z,9.30
2023-05-08T04:54:14.348Z,16.39
2023-05-08T04:55:14.568Z,11.55
2023-05-08T04:56:14.485Z,7.69
2023-05-08T04:57:14.553Z,10.26
2023-05-08T04:58:14.622Z,10.26
2023-05-08T04:59:16.117Z,4.79
2023-05-08T05:00:14.763Z,12.84
2023-05-08T05:01:14.904Z,11.23
2023-05-08T05:02:14.898Z,10.91
2023-05-08T05:03:15.150Z,11.23
2023-05-08T05:04:15.116Z,19.29
2023-05-08T05:05:15.258Z,17.68
2023-05-08T05:06:15.206Z,11.23
2023-05-08T05:07:15.358Z,11.55
2023-05-08T05:08:15.400Z,11.87
2023-05-08T05:09:15.463Z,12.20
2023-05-08T05:10:15.557Z,12.20
2023-05-08T05:11:15.615Z,6.40
2023-05-08T05:12:15.690Z,8.65
2023-05-08T05:13:15.817Z,10.91
2023-05-08T05:14:15.873Z,11.23
2023-05-08T05:15:15.955Z,3.82
2023-05-08T05:16:16.072Z,10.26
2023-05-08T05:17:16.145Z,10.91
2023-05-08T05:18:16.217Z,7.36
2023-05-08T05:19:16.297Z,13.16
2023-05-08T05:20:16.416Z,11.55
2023-05-08T05:21:16.465Z,12.20
2023-05-08T05:22:16.569Z,21.22
2023-05-08T05:23:16.665Z,11.87
2023-05-08T05:24:16.769Z,13.81
2023-05-08T05:25:16.826Z,10.26
2023-05-08T05:26:16.913Z,13.81
2023-05-08T05:27:18.318Z,11.23
2023-05-08T05:28:17.069Z,13.49
2023-05-08T05:29:17.165Z,13.49
2023-05-08T05:30:17.278Z,22.51
2023-05-08T05:31:17.392Z,18.64
2023-05-08T05:32:17.422Z,19.29
2023-05-08T05:33:17.512Z,9.62
2023-05-08T05:34:17.573Z,10.26
2023-05-08T05:35:17.696Z,13.49
2023-05-08T05:36:17.792Z,11.87
2023-05-08T05:37:17.832Z,13.81
2023-05-08T05:38:17.927Z,13.49
2023-05-08T05:39:18.020Z,13.16
2023-05-08T05:40:18.110Z,13.49
2023-05-08T05:41:18.223Z,8.33
2023-05-08T05:42:18.316Z,14.78
2023-05-08T05:43:18.387Z,15.10
2023-05-08T05:44:18.478Z,14.45
2023-05-08T05:45:18.568Z,10.26
2023-05-08T05:46:18.691Z,14.78
2023-05-08T05:47:18.766Z,3.82
2023-05-08T05:48:18.793Z,12.52
2023-05-08T05:49:18.898Z,19.93
2023-05-08T05:50:18.995Z,12.52
2023-05-08T05:51:19.087Z,12.84
2023-05-08T05:52:19.154Z,12.20
2023-05-08T05:53:19.206Z,13.81
2023-05-08T05:54:19.302Z,15.42
2023-05-08T05:55:19.388Z,14.13
2023-05-08T05:56:19.484Z,16.39
2023-05-08T05:57:19.558Z,14.13
2023-05-08T05:58:19.610Z,13.81
2023-05-08T05:59:19.696Z,16.71
2023-05-08T06:00:19.795Z,7.36
2023-05-08T06:01:19.876Z,13.49
2023-05-08T06:02:20.056Z,14.13
2023-05-08T06:03:20.085Z,13.16
2023-05-08T06:04:20.158Z,16.06
2023-05-08T06:05:20.167Z,14.78
2023-05-08T06:06:20.250Z,14.45
2023-05-08T06:07:20.344Z,14.45
2023-05-08T06:08:20.452Z,14.45
2023-05-08T06:09:20.556Z,19.93
2023-05-08T06:10:20.604Z,15.10
2023-05-08T06:11:20.714Z,5.75
2023-05-08T06:12:20.798Z,14.78
2023-05-08T06:13:20.895Z,11.87
2023-05-08T06:14:20.977Z,15.42
2023-05-08T06:15:21.035Z,15.10
2023-05-08T06:16:21.141Z,12.20
2023-05-08T06:17:21.259Z,20.58
2023-05-08T06:18:21.300Z,11.23
2023-05-08T06:19:21.433Z,12.84
2023-05-08T06:20:21.516Z,18.32
2023-05-08T06:21:21.578Z,17.68
2023-05-08T06:22:21.606Z,13.16
2023-05-08T06:23:21.711Z,12.52
2023-05-08T06:24:21.807Z,7.04
2023-05-08T06:25:21.856Z,11.23
2023-05-08T06:26:23.316Z,13.81
2023-05-08T06:27:22.022Z,7.36
2023-05-08T06:28:22.113Z,15.10
2023-05-08T06:29:22.170Z,15.74
2023-05-08T06:30:22.262Z,20.58
2023-05-08T06:31:22.348Z,15.74
2023-05-08T06:32:22.513Z,16.06
2023-05-08T06:33:24.665Z,17.03
2023-05-08T06:34:22.565Z,17.35
2023-05-08T06:35:22.672Z,8.97
2023-05-08T06:36:22.731Z,18.00
2023-05-08T06:37:22.836Z,17.35
2023-05-08T06:38:22.895Z,16.71
2023-05-08T06:39:22.988Z,16.71
2023-05-08T06:40:23.038Z,22.51
2023-05-08T06:41:23.129Z,16.71
2023-05-08T06:42:23.221Z,20.25
2023-05-08T06:43:23.320Z,17.35
2023-05-08T06:44:23.423Z,16.71
2023-05-08T06:45:23.482Z,15.74
2023-05-08T06:46:23.598Z,16.71
2023-05-08T06:47:23.667Z,16.39
2023-05-08T06:48:23.751Z,11.23
2023-05-08T06:49:23.811Z,15.42
2023-05-08T06:50:23.913Z,10.26
2023-05-08T06:51:23.998Z,11.23
2023-05-08T06:52:24.091Z,15.74
2023-05-08T06:53:24.199Z,16.71
2023-05-08T06:54:24.274Z,8.97
2023-05-08T06:55:24.394Z,18.32
2023-05-08T06:56:24.435Z,22.51
2023-05-08T06:57:24.529Z,10.91
2023-05-08T06:58:24.588Z,17.68
2023-05-08T06:59:24.682Z,18.96
2023-05-08T07:00:24.828Z,22.51
2023-05-08T07:01:24.870Z,18.64
2023-05-08T07:02:25.029Z,18.32
2023-05-08T07:03:25.008Z,24.12
2023-05-08T07:04:25.136Z,17.68
2023-05-08T07:05:25.956Z,19.93
2023-05-08T07:06:25.235Z,19.93
2023-05-08T07:07:25.332Z,13.49
2023-05-08T07:08:25.423Z,20.25
2023-05-08T07:09:25.512Z,19.93
2023-05-08T07:10:25.641Z,21.22
2023-05-08T07:11:25.708Z,13.49
2023-05-08T07:12:25.813Z,20.25
2023-05-08T07:13:26.816Z,19.61
2023-05-08T07:14:25.951Z,21.54
2023-05-08T07:15:27.110Z,12.84
2023-05-08T07:16:26.184Z,20.90
2023-05-08T07:17:26.238Z,21.22
2023-05-08T07:18:26.326Z,20.58
2023-05-08T07:19:26.514Z,20.25
2023-05-08T07:20:26.526Z,14.78
2023-05-08T07:21:26.593Z,22.51
2023-05-08T07:22:26.659Z,20.25
2023-05-08T07:23:26.777Z,20.58
2023-05-08T07:24:26.823Z,18.32
2023-05-08T07:25:26.927Z,18.32
2023-05-08T07:26:27.075Z,19.93
2023-05-08T07:27:27.055Z,19.61
2023-05-08T07:28:27.145Z,19.29
2023-05-08T07:29:27.323Z,19.61
2023-05-08T07:30:27.326Z,20.25
2023-05-08T07:31:27.414Z,20.25
2023-05-08T07:32:27.481Z,17.68
2023-05-08T07:33:27.560Z,12.84
2023-05-08T07:34:27.646Z,18.96
2023-05-08T07:35:27.745Z,9.94
2023-05-08T07:36:27.821Z,18.96
2023-05-08T07:37:27.918Z,19.61
2023-05-08T07:38:28.009Z,19.93
2023-05-08T07:39:28.112Z,15.42
2023-05-08T07:40:28.163Z,13.81
2023-05-08T07:41:28.292Z,20.90
2023-05-08T07:42:28.358Z,15.42
2023-05-08T07:43:28.450Z,22.19
2023-05-08T07:44:28.533Z,25.73
2023-05-08T07:45:28.639Z,15.10
2023-05-08T07:46:28.764Z,27.67
2023-05-08T07:47:28.835Z,20.25
2023-05-08T07:48:28.873Z,25.09
2023-05-08T07:49:29.016Z,22.51
2023-05-08T07:50:29.034Z,22.19
2023-05-08T07:51:29.142Z,21.87
2023-05-08T07:52:29.193Z,22.83
2023-05-08T07:53:29.241Z,18.64
2023-05-08T07:54:29.342Z,23.15
2023-05-08T07:55:29.396Z,22.19
2023-05-08T07:56:29.497Z,26.05
2023-05-08T07:57:29.543Z,22.51
2023-05-08T07:58:29.642Z,21.87
2023-05-08T07:59:29.733Z,21.54
2023-05-08T08:00:29.899Z,27.34
2023-05-08T08:01:29.917Z,19.29
2023-05-08T08:02:30.076Z,22.51
2023-05-08T08:03:30.189Z,22.83
2023-05-08T08:04:30.347Z,22.51
2023-05-08T08:05:30.245Z,22.83
2023-05-08T08:06:30.327Z,17.68
2023-05-08T08:07:30.378Z,22.19
2023-05-08T08:08:30.486Z,23.15
2023-05-08T08:09:30.555Z,22.83
2023-05-08T08:10:30.614Z,18.64
2023-05-08T08:11:30.704Z,23.15
2023-05-08T08:12:30.826Z,24.77
2023-05-08T08:13:30.986Z,23.80
2023-05-08T08:14:30.964Z,24.12
2023-05-08T08:15:31.090Z,29.28
2023-05-08T08:16:31.198Z,29.60
2023-05-08T08:17:31.287Z,22.19
2023-05-08T08:18:31.344Z,29.92
2023-05-08T08:19:31.384Z,21.87
2023-05-08T08:20:31.480Z,26.05
2023-05-08T08:21:31.590Z,21.87
2023-05-08T08:22:31.645Z,17.03
2023-05-08T08:23:31.739Z,23.15
2023-05-08T08:24:31.848Z,23.80
2023-05-08T08:25:31.902Z,15.74
2023-05-08T08:26:32.004Z,23.15
2023-05-08T08:27:32.089Z,19.61
2023-05-08T08:28:32.134Z,27.67
2023-05-08T08:29:32.237Z,24.12
2023-05-08T08:30:32.313Z,28.96
2023-05-08T08:31:32.434Z,17.68
2023-05-08T08:32:32.476Z,16.71
2023-05-08T08:33:32.595Z,23.15
2023-05-08T08:34:32.633Z,26.38
2023-05-08T08:35:32.687Z,23.15
2023-05-08T08:36:32.792Z,22.83
2023-05-08T08:37:32.866Z,16.71
2023-05-08T08:38:32.962Z,22.51
2023-05-08T08:39:33.095Z,23.80
2023-05-08T08:40:33.149Z,18.96
2023-05-08T08:41:33.239Z,23.80
2023-05-08T08:42:33.344Z,23.80
2023-05-08T08:43:33.389Z,23.48
2023-05-08T08:44:33.502Z,23.15
2023-05-08T08:45:33.632Z,26.05
2023-05-08T08:46:33.685Z,23.48
2023-05-08T08:47:33.694Z,23.80
2023-05-08T08:48:33.827Z,19.93
2023-05-08T08:49:33.852Z,25.41
2023-05-08T08:50:33.948Z,19.93
2023-05-08T08:51:34.030Z,23.48
2023-05-08T08:52:34.088Z,24.12
2023-05-08T08:53:34.199Z,21.87
2023-05-08T08:54:34.307Z,22.19
2023-05-08T08:55:34.323Z,23.15
2023-05-08T08:56:34.420Z,21.87
2023-05-08T08:57:35.392Z,20.25
2023-05-08T08:58:35.890Z,21.54
2023-05-08T08:59:34.663Z,21.22
2023-05-08T09:00:34.771Z,16.39
2023-05-08T09:01:34.872Z,22.51
2023-05-08T09:02:34.993Z,22.83
2023-05-08T09:03:35.093Z,17.03
2023-05-08T09:04:35.051Z,20.25
2023-05-08T09:05:35.162Z,19.61
2023-05-08T09:06:35.214Z,14.13
2023-05-08T09:07:35.312Z,14.45
2023-05-08T09:08:35.406Z,19.93
2023-05-08T09:09:35.505Z,23.80
2023-05-08T09:10:35.578Z,19.93
2023-05-08T09:11:35.640Z,20.90
2023-05-08T09:12:35.777Z,18.64
2023-05-08T09:13:36.007Z,12.20
2023-05-08T09:14:35.912Z,20.58
2023-05-08T09:15:36.004Z,21.54
2023-05-08T09:16:36.123Z,27.99
2023-05-08T09:17:36.185Z,22.19
2023-05-08T09:18:36.249Z,29.28
2023-05-08T09:19:36.345Z,22.83
2023-05-08T09:20:36.421Z,23.48
2023-05-08T09:21:36.516Z,31.86
2023-05-08T09:22:36.619Z,19.29
2023-05-08T09:23:36.670Z,22.83
2023-05-08T09:24:36.770Z,22.51
2023-05-08T09:25:36.874Z,22.19
2023-05-08T09:26:36.955Z,22.83
2023-05-08T09:27:37.017Z,31.21
2023-05-08T09:28:37.805Z,23.15
2023-05-08T09:29:37.159Z,18.00
2023-05-08T09:30:37.249Z,23.48
2023-05-08T09:31:37.371Z,21.22
2023-05-08T09:32:37.433Z,23.80
2023-05-08T09:33:37.530Z,30.24
2023-05-08T09:34:37.631Z,23.48
2023-05-08T09:35:37.755Z,23.48
2023-05-08T09:36:37.798Z,26.70
2023-05-08T09:37:37.855Z,22.83
2023-05-08T09:38:37.963Z,22.83
2023-05-08T09:39:38.042Z,30.57
2023-05-08T09:40:38.141Z,23.80
2023-05-08T09:41:38.228Z,23.48
2023-05-08T09:42:38.340Z,17.03
2023-05-08T09:43:38.411Z,25.73
2023-05-08T09:44:38.474Z,23.48
2023-05-08T09:45:38.612Z,23.80
2023-05-08T09:46:38.656Z,18.00
2023-05-08T09:47:38.853Z,23.15
2023-05-08T09:48:38.821Z,28.31
2023-05-08T09:49:38.891Z,25.09
2023-05-08T09:50:40.551Z,23.80
2023-05-08T09:51:39.171Z,24.12
2023-05-08T09:52:39.177Z,23.80
2023-05-08T09:53:39.248Z,26.70
2023-05-08T09:54:39.291Z,23.48
2023-05-08T09:55:39.390Z,23.80
2023-05-08T09:56:39.950Z,24.77
2023-05-08T09:57:39.678Z,23.15
2023-05-08T09:58:39.801Z,21.54
2023-05-08T09:59:39.749Z,30.89
2023-05-08T10:00:39.885Z,22.83
2023-05-08T10:01:40.018Z,25.73
2023-05-08T10:02:40.074Z,27.34
2023-05-08T10:03:40.146Z,15.74
2023-05-08T10:04:40.453Z,24.77
2023-05-08T10:05:40.257Z,24.12
2023-05-08T10:06:40.348Z,24.44
2023-05-08T10:07:40.483Z,18.32
2023-05-08T10:08:40.526Z,23.80
2023-05-08T10:09:50.329Z,23.48
2023-05-08T10:10:40.710Z,23.15
2023-05-08T10:11:40.803Z,21.54
2023-05-08T10:12:40.918Z,23.15
2023-05-08T10:13:41.009Z,23.48
2023-05-08T10:14:41.228Z,24.12
2023-05-08T10:15:41.126Z,29.60
2023-05-08T10:16:41.225Z,19.29
2023-05-08T10:17:41.352Z,25.09
2023-05-08T10:18:41.414Z,24.77
2023-05-08T10:19:41.497Z,32.82
2023-05-08T10:20:41.556Z,24.12
2023-05-08T10:21:41.620Z,25.09
2023-05-08T10:22:41.715Z,25.41
2023-05-08T10:23:41.768Z,32.50
2023-05-08T10:24:41.873Z,21.22
2023-05-08T10:25:41.964Z,20.25
2023-05-08T10:26:47.745Z,21.22
2023-05-08T10:27:42.151Z,25.09
2023-05-08T10:28:42.256Z,24.77
2023-05-08T10:29:42.363Z,25.73
2023-05-08T10:30:42.498Z,32.82
2023-05-08T10:31:42.533Z,32.18
2023-05-08T10:32:42.598Z,26.70
2023-05-08T10:33:42.618Z,26.38
2023-05-08T10:34:42.723Z,26.70
2023-05-08T10:35:42.808Z,21.87
2023-05-08T10:36:42.987Z,29.60
2023-05-08T10:37:43.012Z,21.54
2023-05-08T10:38:43.071Z,27.34
2023-05-08T10:39:43.171Z,26.70
2023-05-08T10:40:43.239Z,26.38
2023-05-08T10:41:43.329Z,24.44
2023-05-08T10:42:43.439Z,29.92
2023-05-08T10:43:43.514Z,24.12
2023-05-08T10:44:43.596Z,21.22
2023-05-08T10:45:43.664Z,26.05
2023-05-08T10:46:43.826Z,30.89
2023-05-08T10:47:45.690Z,27.99
2023-05-08T10:48:43.913Z,26.05
2023-05-08T10:49:43.951Z,33.14
2023-05-08T10:50:44.068Z,26.05
2023-05-08T10:51:44.125Z,30.24
2023-05-08T10:52:44.212Z,26.70
2023-05-08T10:53:44.308Z,27.34
2023-05-08T10:54:44.408Z,26.05
2023-05-08T10:55:44.489Z,26.70
2023-05-08T10:56:44.582Z,26.38
2023-05-08T10:57:44.681Z,26.70
2023-05-08T10:58:44.851Z,26.05
2023-05-08T10:59:44.855Z,26.05
2023-05-08T11:00:44.956Z,18.00
2023-05-08T11:01:45.097Z,25.41
2023-05-08T11:02:45.212Z,24.12
2023-05-08T11:03:45.335Z,26.38
2023-05-08T11:04:45.303Z,25.73
2023-05-08T11:05:45.405Z,25.73
2023-05-08T11:06:45.473Z,26.38
2023-05-08T11:07:45.527Z,24.12
2023-05-08T11:08:45.611Z,32.18
2023-05-08T11:09:45.669Z,27.02
2023-05-08T11:10:45.762Z,32.18
2023-05-08T11:11:45.860Z,27.34
2023-05-08T11:12:46.066Z,27.02
2023-05-08T11:13:46.048Z,31.86
2023-05-08T11:14:46.154Z,27.99
2023-05-08T11:15:46.254Z,32.82
2023-05-08T11:16:46.417Z,26.38
2023-05-08T11:17:46.505Z,24.77
2023-05-08T11:18:49.666Z,26.05
2023-05-08T11:19:46.620Z,26.70
2023-05-08T11:20:46.688Z,27.02
2023-05-08T11:21:46.769Z,32.50
2023-05-08T11:22:46.871Z,26.70
2023-05-08T11:23:46.973Z,35.08
2023-05-08T11:24:47.034Z,23.15
2023-05-08T11:25:47.129Z,28.96
2023-05-08T11:26:47.214Z,29.28
2023-05-08T11:27:47.337Z,28.31
2023-05-08T11:28:47.395Z,28.96
2023-05-08T11:29:47.484Z,25.09
2023-05-08T11:30:47.570Z,34.43
2023-05-08T11:31:47.697Z,20.25
2023-05-08T11:32:47.778Z,28.63
2023-05-08T11:33:47.834Z,29.28
2023-05-08T11:34:47.893Z,29.28
2023-05-08T11:35:48.017Z,21.54
2023-05-08T11:36:48.075Z,29.60
2023-05-08T11:37:48.169Z,28.31
2023-05-08T11:38:48.279Z,28.63
2023-05-08T11:39:48.344Z,36.04
2023-05-08T11:40:48.430Z,27.34
2023-05-08T11:41:48.512Z,28.96
2023-05-08T11:42:48.609Z,28.63
2023-05-08T11:43:48.708Z,28.31
2023-05-08T11:44:48.808Z,33.47
2023-05-08T11:45:48.867Z,25.09
2023-05-08T11:46:49.016Z,29.28
2023-05-08T11:47:49.071Z,29.28
2023-05-08T11:48:49.079Z,29.28
2023-05-08T11:49:49.174Z,29.28
2023-05-08T11:50:49.275Z,32.82
2023-05-08T11:51:49.329Z,29.92
2023-05-08T11:52:49.422Z,36.04
2023-05-08T11:53:49.580Z,30.89
2023-05-08T11:54:49.582Z,25.09
2023-05-08T11:55:49.680Z,30.24
2023-05-08T11:56:50.576Z,35.08
2023-05-08T11:57:49.830Z,29.60
2023-05-08T11:58:49.920Z,29.28
2023-05-08T11:59:50.042Z,30.24
2023-05-08T12:00:50.152Z,30.57
2023-05-08T12:02:04.432Z,24.77
2023-05-08T12:02:50.409Z,33.14
2023-05-08T12:03:50.567Z,30.57
2023-05-08T12:04:50.452Z,34.76
2023-05-08T12:05:50.561Z,24.12
2023-05-08T12:06:50.571Z,30.89
2023-05-08T12:07:50.631Z,36.69
2023-05-08T12:08:50.749Z,30.57
2023-05-08T12:09:50.814Z,31.86
2023-05-08T12:10:50.873Z,25.09
2023-05-08T12:11:51.000Z,24.77
2023-05-08T12:12:51.082Z,24.12
2023-05-08T12:13:51.129Z,31.53
2023-05-08T12:14:51.280Z,32.82
2023-05-08T12:15:51.313Z,32.50
2023-05-08T12:16:51.441Z,30.89
2023-05-08T12:17:51.524Z,30.89
2023-05-08T12:18:51.564Z,31.21
2023-05-08T12:19:51.615Z,30.89
2023-05-08T12:20:51.740Z,29.60
2023-05-08T12:21:51.815Z,30.57
2023-05-08T12:22:51.896Z,33.14
2023-05-08T12:23:51.989Z,29.28
2023-05-08T12:24:52.084Z,22.19
2023-05-08T12:25:54.360Z,27.67
2023-05-08T12:26:52.261Z,27.67
2023-05-08T12:27:52.372Z,27.02
2023-05-08T12:28:52.423Z,27.67
2023-05-08T12:29:52.522Z,27.34
2023-05-08T12:30:52.640Z,33.47
2023-05-08T12:31:52.709Z,27.67
2023-05-08T12:32:52.783Z,26.38
2023-05-08T12:33:52.825Z,27.02
2023-05-08T12:34:52.914Z,28.63
2023-05-08T12:35:53.038Z,27.67
2023-05-08T12:36:53.093Z,27.34
2023-05-08T12:37:53.207Z,28.31
2023-05-08T12:38:53.300Z,28.63
2023-05-08T12:39:53.504Z,29.28
2023-05-08T12:40:53.416Z,29.28
2023-05-08T12:41:53.489Z,30.57
2023-05-08T12:42:53.545Z,30.24
2023-05-08T12:43:53.649Z,30.24
2023-05-08T12:44:53.745Z,24.77
2023-05-08T12:45:53.823Z,38.62
2023-05-08T12:46:53.925Z,32.50
2023-05-08T12:48:00.469Z,31.21
2023-05-08T12:48:54.042Z,28.63
2023-05-08T12:49:55.128Z,28.31
2023-05-08T12:50:54.872Z,28.96
2023-05-08T12:51:54.309Z,34.11
2023-05-08T12:52:54.588Z,37.66
2023-05-08T12:53:54.413Z,31.86
2023-05-08T12:54:54.512Z,33.79
2023-05-08T12:55:54.603Z,31.86
2023-05-08T12:56:54.680Z,32.82
2023-05-08T12:57:54.770Z,32.18
2023-05-08T12:58:54.871Z,32.18
2023-05-08T12:59:55.666Z,26.70
2023-05-08T13:00:55.007Z,35.08
2023-05-08T13:01:55.130Z,32.82
2023-05-08T13:02:55.253Z,25.73
2023-05-08T13:04:01.680Z,37.66
2023-05-08T13:04:55.433Z,33.14